Time;durP1;ratioP1;P1;durP2;ratioP2;P2;SDS_P1;SDS_P2;PMS_P1;PMS_P2;Temp;Humidity;BMP_temperature;BMP_pressure;BME280_temperature;BME280_humidity;BME280_pressure;Samples;Min_cycle;Max_cycle;Signal;HPM_P1;HPM_P2
2022/05/19 00:01:53;;;;;;;9.07;2.60;;;;;;;13.43;56.72;100929.63;5082581;28;20056;-76
2022/05/19 00:04:18;;;;;;;5.93;2.72;;;;;;;13.46;56.70;100917.44;5082238;28;20029;-75
2022/05/19 00:06:44;;;;;;;3.85;2.60;;;;;;;13.48;56.79;100920.84;5082573;28;20480;-75
2022/05/19 00:09:10;;;;;;;5.95;2.50;;;;;;;13.42;56.78;100920.94;5082599;28;20108;-74
2022/05/19 00:11:37;;;;;;;4.65;3.00;;;;;;;13.50;56.69;100923.44;5066566;28;20031;-75
2022/05/19 00:14:02;;;;;;;9.95;2.78;;;;;;;13.44;56.83;100926.13;5086093;28;20130;-75
2022/05/19 00:16:28;;;;;;;8.35;2.70;;;;;;;13.42;56.91;100918.31;5086140;28;20024;-75
2022/05/19 00:18:53;;;;;;;4.45;2.17;;;;;;;13.38;56.69;100907.09;5085831;28;20028;-75
2022/05/19 00:21:19;;;;;;;7.75;2.13;;;;;;;13.48;56.08;100902.59;5086044;28;20034;-76
2022/05/19 00:23:44;;;;;;;6.63;2.90;;;;;;;13.48;56.10;100912.19;5085953;28;20047;-75
2022/05/19 00:26:10;;;;;;;6.78;2.78;;;;;;;13.47;56.09;100916.53;5085697;28;20108;-75
2022/05/19 00:28:35;;;;;;;2.70;2.05;;;;;;;13.37;56.13;100905.34;5086092;28;20031;-75
2022/05/19 00:31:01;;;;;;;4.60;2.17;;;;;;;13.35;56.40;100895.81;5086052;28;20020;-75
2022/05/19 00:33:27;;;;;;;5.88;3.00;;;;;;;13.32;56.36;100907.13;5067536;28;20093;-75
2022/05/19 00:35:52;;;;;;;8.25;3.20;;;;;;;13.18;56.39;100893.44;5085805;28;20029;-74
2022/05/19 00:38:17;;;;;;;5.53;2.75;;;;;;;13.25;56.52;100901.16;5067360;28;20028;-75
2022/05/19 00:40:49;;;;;;;8.52;2.58;;;;;;;13.22;56.13;100882.94;5085816;28;20087;-75
2022/05/19 00:43:15;;;;;;;7.57;2.90;;;;;;;13.22;56.25;100885.53;5085605;28;20039;-78
2022/05/19 00:46:05;;;;;;;11.77;3.97;;;;;;;13.23;56.27;100882.03;5085497;28;20078;-76
2022/05/19 00:48:43;;;;;;;7.28;2.70;;;;;;;13.24;56.13;100888.13;5067232;28;20586;-75
2022/05/19 00:51:11;;;;;;;11.02;2.72;;;;;;;13.18;56.44;100875.19;5067251;28;20047;-74
2022/05/19 00:53:45;;;;;;;5.63;3.05;;;;;;;13.11;56.47;100877.84;5085477;28;20055;-74
2022/05/19 00:56:33;;;;;;;4.90;2.50;;;;;;;13.18;56.48;100881.22;5085324;28;20028;-74
2022/05/19 00:59:05;;;;;;;4.35;2.40;;;;;;;13.24;56.32;100872.50;5066576;28;20043;-76
2022/05/19 01:01:33;;;;;;;4.45;2.50;;;;;;;13.18;56.23;100867.34;5085356;28;20051;-75
2022/05/19 01:04:06;;;;;;;3.67;2.10;;;;;;;13.21;56.41;100873.38;5085000;28;20024;-75
2022/05/19 01:06:33;;;;;;;7.18;3.70;;;;;;;13.17;56.53;100868.22;5085039;28;20097;-75
2022/05/19 01:09:03;;;;;;;7.05;2.85;;;;;;;13.01;56.88;100864.06;5085056;28;20040;-76
2022/05/19 01:11:29;;;;;;;6.80;2.60;;;;;;;13.04;56.93;100857.94;5085038;28;20034;-76
2022/05/19 01:13:54;;;;;;;4.13;1.90;;;;;;;13.16;56.80;100858.69;5085159;28;20036;-76
2022/05/19 01:16:20;;;;;;;4.38;2.50;;;;;;;13.15;56.83;100857.81;5085081;28;20446;-76
2022/05/19 01:18:46;;;;;;;5.70;2.67;;;;;;;13.06;57.09;100861.41;5084604;28;20031;-74
2022/05/19 01:21:15;;;;;;;5.43;2.28;;;;;;;13.09;57.04;100852.66;5084898;28;20039;-75
2022/05/19 01:23:49;;;;;;;5.85;2.15;;;;;;;13.12;56.89;100861.31;5084019;28;20016;-73
2022/05/19 01:26:25;;;;;;;4.97;2.58;;;;;;;13.18;56.67;100856.94;5066649;28;20115;-75
2022/05/19 01:28:50;;;;;;;6.20;1.85;;;;;;;13.12;56.97;100837.00;5084910;28;20020;-73
2022/05/19 01:31:48;;;;;;;6.13;2.28;;;;;;;13.20;56.86;100850.81;5084803;28;20021;-75
2022/05/19 01:34:16;;;;;;;5.35;2.45;;;;;;;13.18;56.62;100854.31;5085023;28;20024;-74
2022/05/19 01:36:41;;;;;;;6.93;2.33;;;;;;;13.18;56.68;100851.72;5066555;28;20024;-73
2022/05/19 01:39:10;;;;;;;4.53;1.92;;;;;;;13.21;56.68;100847.31;5084557;28;20044;-75
2022/05/19 01:41:51;;;;;;;4.90;2.20;;;;;;;13.21;56.64;100849.91;5084749;28;20030;-76
2022/05/19 01:44:44;;;;;;;5.03;2.38;;;;;;;13.24;56.62;100839.44;5084577;28;20027;-76
2022/05/19 01:47:39;;;;;;;4.40;2.38;;;;;;;13.23;56.57;100837.72;5066604;28;20532;-76
2022/05/19 01:50:16;;;;;;;4.43;2.65;;;;;;;13.27;56.50;100846.38;5084488;28;20027;-75
2022/05/19 01:52:55;;;;;;;5.40;2.25;;;;;;;13.31;56.27;100831.53;5084226;28;20031;-74
2022/05/19 01:55:26;;;;;;;4.43;2.10;;;;;;;13.30;56.28;100835.03;5084418;28;20247;-76
2022/05/19 01:57:59;;;;;;;3.33;2.40;;;;;;;13.33;56.24;100825.44;5066266;28;20028;-74
2022/05/19 02:00:27;;;;;;;4.88;2.42;;;;;;;13.30;56.22;100827.22;5084372;28;20033;-73
2022/05/19 02:03:08;;;;;;;7.38;2.25;;;;;;;13.25;56.60;100827.28;5066374;28;20024;-73
2022/05/19 02:05:56;;;;;;;6.65;2.85;;;;;;;13.15;56.65;100816.09;5083959;28;20020;-74
2022/05/19 02:08:43;;;;;;;4.82;2.35;;;;;;;13.22;56.67;100814.28;5066163;28;20125;-73
2022/05/19 02:11:14;;;;;;;4.15;2.55;;;;;;;13.19;56.67;100827.34;5066178;28;20118;-74
2022/05/19 02:13:40;;;;;;;6.68;2.40;;;;;;;13.24;56.88;100830.78;5083902;28;20028;-73
2022/05/19 02:16:09;;;;;;;5.65;2.42;;;;;;;13.19;56.95;100822.16;5084002;28;20021;-73
2022/05/19 02:18:34;;;;;;;6.32;2.78;;;;;;;13.21;57.18;100831.66;5083638;28;20029;-73
2022/05/19 02:21:04;;;;;;;4.10;2.92;;;;;;;13.27;56.97;100823.75;5083982;28;20031;-74
2022/05/19 02:23:32;;;;;;;6.03;2.47;;;;;;;13.22;56.97;100809.06;5084100;28;20067;-73
2022/05/19 02:25:58;;;;;;;7.15;2.10;;;;;;;13.29;56.98;100821.13;5083574;28;20040;-74
2022/05/19 02:28:31;;;;;;;4.40;2.30;;;;;;;13.31;57.08;100816.75;5083632;28;20411;-73
2022/05/19 02:30:58;;;;;;;6.80;2.88;;;;;;;13.25;56.93;100811.63;5065735;28;20032;-73
2022/05/19 02:33:23;;;;;;;7.55;2.90;;;;;;;13.25;57.14;100820.31;5083254;28;20050;-73
2022/05/19 02:35:49;;;;;;;4.85;2.28;;;;;;;13.32;57.07;100808.03;5083557;28;20013;-74
2022/05/19 02:38:16;;;;;;;3.50;2.30;;;;;;;13.31;57.02;100802.84;5083528;28;20032;-75
2022/05/19 02:40:42;;;;;;;4.90;2.28;;;;;;;13.29;57.09;100802.03;5083434;28;20105;-76
2022/05/19 02:43:09;;;;;;;3.72;2.38;;;;;;;13.25;57.23;100796.00;5083598;28;20028;-74
2022/05/19 02:45:35;;;;;;;7.05;2.45;;;;;;;13.34;57.05;100795.88;5083277;28;20029;-74
2022/05/19 02:48:01;;;;;;;5.50;2.65;;;;;;;13.19;57.24;100789.13;5083406;28;20025;-75
2022/05/19 02:50:27;;;;;;;4.68;2.40;;;;;;;13.30;57.11;100788.97;5083196;28;20093;-74
2022/05/19 02:52:53;;;;;;;6.97;2.80;;;;;;;13.19;57.18;100786.50;5083589;28;20054;-75
2022/05/19 02:55:19;;;;;;;5.05;2.42;;;;;;;13.20;57.40;100776.94;5065250;28;20013;-75
2022/05/19 02:57:45;;;;;;;7.15;2.75;;;;;;;13.19;57.34;100783.03;5083288;28;20128;-75
2022/05/19 03:00:14;;;;;;;5.00;2.40;;;;;;;13.21;57.56;100770.84;5065476;28;20069;-75
2022/05/19 03:02:41;;;;;;;5.88;2.72;;;;;;;13.23;57.49;100780.38;5065456;28;20028;-75
2022/05/19 03:05:09;;;;;;;7.50;2.55;;;;;;;13.29;57.53;100770.75;5064826;28;20122;-76
2022/05/19 03:07:34;;;;;;;8.13;2.45;;;;;;;13.29;57.52;100776.81;5083863;28;20089;-76
2022/05/19 03:10:00;;;;;;;4.85;2.45;;;;;;;13.29;57.63;100770.75;5065198;28;20024;-75
2022/05/19 03:12:25;;;;;;;4.97;2.30;;;;;;;13.32;57.68;100775.91;5065357;28;20024;-75
2022/05/19 03:14:50;;;;;;;5.13;2.30;;;;;;;13.32;57.91;100773.31;5083241;28;20020;-73
2022/05/19 03:17:16;;;;;;;4.10;2.42;;;;;;;13.29;57.76;100761.16;5082949;28;20533;-76
2022/05/19 03:19:41;;;;;;;3.60;2.58;;;;;;;13.39;57.82;100762.75;5083062;28;20059;-77
2022/05/19 03:22:07;;;;;;;4.63;2.28;;;;;;;13.45;57.64;100768.78;5083182;28;20078;-76
2022/05/19 03:24:34;;;;;;;5.55;2.92;;;;;;;13.20;57.80;100745.66;5083004;28;20044;-77
2022/05/19 03:26:59;;;;;;;5.45;2.83;;;;;;;13.43;57.78;100774.03;5082921;28;20032;-78
2022/05/19 03:29:25;;;;;;;3.90;2.80;;;;;;;13.42;57.98;100771.44;5083040;28;20023;-79
2022/05/19 03:31:51;;;;;;;4.20;2.63;;;;;;;13.60;57.54;100770.31;5083131;28;20149;-79
2022/05/19 03:34:17;;;;;;;5.07;3.00;;;;;;;13.48;57.68;100756.53;5082876;28;20547;-77
2022/05/19 03:36:46;;;;;;;6.65;2.42;;;;;;;13.56;57.79;100761.66;5083014;28;20017;-79
2022/05/19 03:39:12;;;;;;;7.45;2.80;;;;;;;13.47;58.01;100759.16;5082673;28;20052;-78
2022/05/19 03:41:38;;;;;;;3.53;2.50;;;;;;;13.47;58.02;100761.78;5083151;28;20032;-77
2022/05/19 03:44:03;;;;;;;6.97;2.60;;;;;;;13.45;57.86;100759.19;5082928;28;20029;-78
2022/05/19 03:46:29;;;;;;;7.38;3.05;;;;;;;13.48;57.95;100764.38;5085258;28;20027;-77
2022/05/19 03:48:54;;;;;;;4.32;2.40;;;;;;;13.40;57.80;100737.56;5086815;28;20428;-79
2022/05/19 03:51:25;;;;;;;6.80;2.63;;;;;;;13.54;57.89;100750.41;5087097;28;20024;-79
2022/05/19 03:53:51;;;;;;;8.65;2.78;;;;;;;13.56;57.93;100758.22;5068744;28;20035;-77
2022/05/19 03:56:21;;;;;;;4.85;2.30;;;;;;;13.50;57.95;100749.59;5087018;28;20099;-80
2022/05/19 03:58:48;;;;;;;5.72;2.60;;;;;;;13.53;58.11;100756.50;5087026;28;20111;-75
2022/05/19 04:01:14;;;;;;;4.53;2.63;;;;;;;13.58;58.07;100764.25;5068827;28;20017;-68
2022/05/19 04:03:39;;;;;;;6.65;2.97;;;;;;;13.65;57.91;100758.06;5086384;28;20025;-72
2022/05/19 04:06:04;;;;;;;3.47;2.50;;;;;;;13.65;57.94;100763.28;5086411;28;20025;-77
2022/05/19 04:08:30;;;;;;;3.92;2.40;;;;;;;13.63;57.88;100742.44;5086748;28;20028;-73
2022/05/19 04:10:56;;;;;;;3.75;2.40;;;;;;;13.77;57.63;100750.94;5086695;28;20024;-72
2022/05/19 04:13:22;;;;;;;4.60;2.50;;;;;;;13.72;57.85;100746.63;5086583;28;20029;-73
2022/05/19 04:15:47;;;;;;;5.28;3.10;;;;;;;13.72;57.75;100746.63;5086172;28;20027;-73
2022/05/19 04:18:14;;;;;;;5.78;2.67;;;;;;;13.71;57.96;100747.53;5068329;28;20043;-72
2022/05/19 04:20:40;;;;;;;5.95;3.00;;;;;;;13.70;58.15;100745.81;5086180;28;20048;-72
2022/05/19 04:23:05;;;;;;;4.53;2.97;;;;;;;13.69;57.98;100735.41;5068274;28;20512;-73
2022/05/19 04:25:30;;;;;;;3.25;2.20;;;;;;;13.71;58.01;100728.41;5086106;28;20028;-73
2022/05/19 04:27:57;;;;;;;6.20;2.80;;;;;;;13.78;57.92;100735.25;5068305;28;20104;-70
2022/05/19 04:30:23;;;;;;;3.53;2.58;;;;;;;13.85;57.87;100747.31;5086203;28;20029;-66
2022/05/19 04:32:48;;;;;;;3.83;2.72;;;;;;;13.84;58.05;100737.75;5086294;28;20027;-73
2022/05/19 04:35:15;;;;;;;6.72;2.63;;;;;;;13.85;57.87;100729.03;5085727;28;20017;-73
2022/05/19 04:37:41;;;;;;;5.32;2.38;;;;;;;13.87;58.15;100742.94;5067788;28;20043;-73
2022/05/19 04:40:08;;;;;;;7.00;3.38;;;;;;;13.92;58.05;100735.03;5085812;28;20051;-74
2022/05/19 04:42:34;;;;;;;4.93;2.72;;;;;;;13.89;58.18;100737.69;5086137;28;20124;-73
2022/05/19 04:44:59;;;;;;;8.20;2.70;;;;;;;13.87;58.29;100727.28;5085975;28;20078;-75
2022/05/19 04:47:25;;;;;;;5.50;2.90;;;;;;;13.90;58.25;100720.28;5085774;28;20028;-73
2022/05/19 04:49:50;;;;;;;3.95;2.58;;;;;;;13.90;58.36;100720.28;5085613;28;20032;-74
2022/05/19 04:52:16;;;;;;;6.63;2.47;;;;;;;13.91;58.57;100722.88;5085802;28;20020;-75
2022/05/19 04:54:42;;;;;;;6.03;2.90;;;;;;;14.05;58.05;100730.44;5086026;28;20016;-75
2022/05/19 04:57:07;;;;;;;5.90;2.97;;;;;;;13.99;58.21;100717.50;5067548;28;20016;-75
2022/05/19 04:59:38;;;;;;;10.73;3.65;;;;;;;13.94;58.25;100701.06;5085865;28;20451;-74
2022/05/19 05:02:03;;;;;;;4.78;2.63;;;;;;;14.09;58.16;100715.59;5085639;28;20025;-74
2022/05/19 05:04:30;;;;;;;4.85;2.95;;;;;;;14.13;58.05;100728.56;5067223;28;20101;-74
2022/05/19 05:06:56;;;;;;;8.20;2.92;;;;;;;14.17;58.13;100729.34;5067249;28;20029;-74
2022/05/19 05:09:21;;;;;;;4.55;3.15;;;;;;;14.12;58.19;100720.75;5085504;28;20025;-74
2022/05/19 05:11:46;;;;;;;6.15;2.40;;;;;;;14.21;58.03;100719.72;5085369;28;20032;-77
2022/05/19 05:14:12;;;;;;;5.30;3.53;;;;;;;14.28;57.83;100718.69;5085585;28;20058;-74
2022/05/19 05:16:37;;;;;;;7.25;2.80;;;;;;;14.30;58.02;100723.91;5085446;28;20023;-75
2022/05/19 05:19:06;;;;;;;5.38;2.83;;;;;;;14.35;58.08;100711.63;5085379;28;20055;-77
2022/05/19 05:21:31;;;;;;;5.60;3.03;;;;;;;14.42;57.59;100697.56;5085397;28;20032;-77
2022/05/19 05:23:57;;;;;;;5.32;2.85;;;;;;;14.45;58.18;100707.94;5085507;28;20033;-75
2022/05/19 05:26:22;;;;;;;8.00;2.97;;;;;;;14.53;57.48;100688.63;5085043;28;20035;-76
2022/05/19 05:28:47;;;;;;;4.45;2.85;;;;;;;14.70;57.40;100712.66;5085033;28;20020;-76
2022/05/19 05:31:13;;;;;;;4.53;3.00;;;;;;;14.91;57.13;100696.59;5085123;28;20024;-75
2022/05/19 05:33:39;;;;;;;6.68;3.13;;;;;;;15.16;56.76;100707.34;5084525;28;20037;-75
2022/05/19 05:36:04;;;;;;;7.72;2.88;;;;;;;15.50;56.41;100705.69;5084879;28;20027;-76
2022/05/19 05:38:29;;;;;;;5.95;2.45;;;;;;;15.91;54.80;100692.47;5084764;28;20610;-76
2022/05/19 05:40:55;;;;;;;4.45;2.33;;;;;;;16.18;53.87;100691.81;5084543;28;20090;-75
2022/05/19 05:43:21;;;;;;;4.50;2.63;;;;;;;16.34;53.95;100698.34;5084801;28;20020;-76
2022/05/19 05:45:48;;;;;;;4.32;2.75;;;;;;;16.49;53.26;100690.94;5084481;28;20050;-75
2022/05/19 05:48:14;;;;;;;7.05;3.10;;;;;;;16.78;52.43;100693.59;5084372;28;20105;-75
2022/05/19 05:50:41;;;;;;;5.93;2.25;;;;;;;16.87;52.04;100690.72;5084420;28;20024;-75
2022/05/19 05:53:07;;;;;;;6.50;2.92;;;;;;;16.74;51.92;100685.00;5066522;28;20020;-75
2022/05/19 05:55:33;;;;;;;7.28;2.80;;;;;;;16.69;52.28;100672.00;5084189;28;20031;-76
2022/05/19 05:57:59;;;;;;;3.45;2.70;;;;;;;16.63;51.92;100668.72;5084439;28;20040;-75
2022/05/19 06:00:25;;;;;;;5.88;3.20;;;;;;;16.45;52.40;100655.25;5066427;28;20024;-75
2022/05/19 06:02:51;;;;;;;6.13;3.30;;;;;;;16.47;52.82;100661.28;5084504;28;20028;-75
2022/05/19 06:05:19;;;;;;;10.30;3.13;;;;;;;16.29;53.29;100654.84;5083940;28;20021;-74
2022/05/19 06:07:44;;;;;;;5.95;3.55;;;;;;;16.25;53.77;100653.19;5084456;28;20123;-77
2022/05/19 06:10:12;;;;;;;6.88;3.13;;;;;;;16.30;53.74;100652.19;5083821;28;20102;-78
2022/05/19 06:12:39;;;;;;;9.00;3.50;;;;;;;16.34;53.76;100647.72;5084703;28;20032;-78
2022/05/19 06:15:05;;;;;;;5.85;3.10;;;;;;;16.22;54.29;100638.44;5066334;28;20013;-77
2022/05/19 06:17:30;;;;;;;4.88;3.25;;;;;;;16.30;54.19;100648.69;5083941;28;20124;-77
2022/05/19 06:19:56;;;;;;;5.93;3.58;;;;;;;16.32;54.35;100653.00;5083684;28;20468;-77
2022/05/19 06:22:25;;;;;;;7.85;3.70;;;;;;;16.46;53.93;100667.44;5065781;28;20140;-77
2022/05/19 06:24:51;;;;;;;8.13;3.75;;;;;;;16.39;54.09;100653.66;5083514;28;20021;-78
2022/05/19 06:27:16;;;;;;;6.15;3.17;;;;;;;16.27;54.85;100664.50;5065839;28;20022;-77
2022/05/19 06:29:42;;;;;;;5.75;3.63;;;;;;;16.41;54.69;100674.56;5083596;28;20143;-77
2022/05/19 06:32:08;;;;;;;7.90;3.88;;;;;;;16.53;54.45;100666.38;5083527;28;20025;-77
2022/05/19 06:34:34;;;;;;;7.05;4.00;;;;;;;16.62;54.27;100675.72;5083208;28;20028;-77
2022/05/19 06:36:59;;;;;;;6.18;3.42;;;;;;;16.75;54.27;100657.00;5083353;28;20028;-76
2022/05/19 06:39:24;;;;;;;12.32;4.57;;;;;;;16.90;54.17;100659.16;5083200;28;20052;-77
2022/05/19 06:42:02;;;;;;;8.05;3.90;;;;;;;17.12;53.64;100650.66;5065305;28;20024;-77
2022/05/19 06:44:36;;;;;;;7.93;4.20;;;;;;;17.53;53.43;100655.44;5083217;28;20411;-77
2022/05/19 06:47:03;;;;;;;8.07;3.70;;;;;;;17.91;52.61;100664.66;5083144;28;20021;-77
2022/05/19 06:49:29;;;;;;;12.88;3.90;;;;;;;18.54;52.43;100671.22;5082857;28;20047;-77
2022/05/19 06:51:55;;;;;;;7.82;3.80;;;;;;;19.36;50.66;100674.22;5065149;28;20024;-77
2022/05/19 06:54:21;;;;;;;8.32;3.50;;;;;;;20.23;48.94;100689.00;5083287;28;20099;-76
2022/05/19 06:56:47;;;;;;;11.15;3.83;;;;;;;20.68;46.89;100689.59;5083052;28;20105;-76
2022/05/19 06:59:16;;;;;;;7.03;3.83;;;;;;;20.87;46.45;100698.41;5083132;28;20515;-77
2022/05/19 07:01:42;;;;;;;8.80;3.45;;;;;;;20.81;46.11;100699.59;5083037;28;20032;-74
2022/05/19 07:04:07;;;;;;;5.90;4.07;;;;;;;20.55;46.07;100710.41;5082998;28;20059;-76
2022/05/19 07:06:33;;;;;;;6.30;4.25;;;;;;;20.31;46.77;100713.25;5083003;28;20017;-75
2022/05/19 07:08:58;;;;;;;8.85;3.75;;;;;;;20.11;47.58;100695.66;5082950;28;20036;-75
2022/05/19 07:11:26;;;;;;;7.38;3.90;;;;;;;20.03;47.79;100698.63;5082965;28;20074;-75
2022/05/19 07:14:01;;;;;;;7.55;3.95;;;;;;;20.21;48.66;100703.19;5083093;28;20024;-76
2022/05/19 07:16:28;;;;;;;7.65;4.03;;;;;;;20.65;47.48;100715.25;5082818;28;20077;-75
2022/05/19 07:21:42;;;;;;;5.85;3.90;;;;;;;21.33;46.01;100700.66;5082274;28;20064;-76
2022/05/19 07:24:10;;;;;;;10.18;3.65;;;;;;;21.76;45.49;100700.28;5064586;28;20020;-74
2022/05/19 07:26:35;;;;;;;11.68;3.97;;;;;;;22.10;44.18;100705.66;5064439;28;20464;-74
2022/05/19 07:29:01;;;;;;;9.15;4.18;;;;;;;22.12;44.32;100695.88;5082728;28;20036;-74
2022/05/19 07:31:26;;;;;;;7.10;4.43;;;;;;;22.15;44.67;100697.47;5082914;28;20672;-74
2022/05/19 07:33:51;;;;;;;7.72;4.13;;;;;;;22.21;44.93;100701.56;5082508;28;20154;-75
2022/05/19 07:36:17;;;;;;;8.43;4.47;;;;;;;22.58;45.04;100701.38;5082837;28;20111;-74
2022/05/19 07:38:42;;;;;;;9.25;4.38;;;;;;;23.14;43.91;100677.16;5082623;28;20044;-75
2022/05/19 07:41:07;;;;;;;8.68;5.47;;;;;;;23.63;43.42;100683.19;5082857;28;20119;-75
2022/05/19 07:43:35;;;;;;;6.22;4.65;;;;;;;23.69;42.22;100682.00;5082955;28;20032;-75
2022/05/19 07:46:01;;;;;;;11.77;5.68;;;;;;;23.49;42.41;100674.28;5082748;28;20016;-75
2022/05/19 07:48:26;;;;;;;8.90;5.35;;;;;;;23.59;42.49;100671.09;5082703;28;20028;-75
2022/05/19 07:50:52;;;;;;;12.30;4.93;;;;;;;23.95;42.47;100667.16;5082651;28;20024;-75
2022/05/19 07:53:17;;;;;;;8.73;4.97;;;;;;;24.30;41.78;100659.81;5082747;28;20024;-75
2022/05/19 07:55:43;;;;;;;10.18;4.97;;;;;;;24.23;41.08;100656.69;5082580;28;20016;-75
2022/05/19 07:58:08;;;;;;;10.70;5.25;;;;;;;23.72;41.36;100632.28;5064489;28;20029;-75
2022/05/19 08:00:34;;;;;;;9.13;5.85;;;;;;;23.55;42.38;100625.38;5064564;28;20017;-76
2022/05/19 08:02:59;;;;;;;6.93;4.65;;;;;;;23.68;41.66;100629.94;5082467;28;20024;-75
2022/05/19 08:05:25;;;;;;;11.85;5.70;;;;;;;23.13;42.61;100635.75;5081943;28;20436;-75
2022/05/19 08:07:50;;;;;;;7.75;5.00;;;;;;;22.80;43.57;100634.06;5082294;28;20074;-75
2022/05/19 08:10:25;;;;;;;8.80;4.97;;;;;;;22.70;44.47;100633.75;5082397;28;20046;-75
2022/05/19 08:15:42;;;;;;;7.13;4.60;;;;;;;23.24;44.09;100624.53;5082624;28;20036;-75
2022/05/19 08:18:14;;;;;;;10.40;5.18;;;;;;;23.68;43.70;100624.63;5064471;28;20025;-75
2022/05/19 08:20:46;;;;;;;9.27;5.85;;;;;;;24.61;42.24;100618.91;5082139;28;20111;-75
2022/05/19 08:23:16;;;;;;;10.38;4.50;;;;;;;24.96;41.23;100622.03;5082334;28;20384;-75
2022/05/19 08:25:43;;;;;;;6.75;4.50;;;;;;;25.38;40.62;100638.69;5082091;28;20017;-75
2022/05/19 08:28:09;;;;;;;8.20;6.13;;;;;;;25.73;39.32;100637.28;5082176;28;20070;-74
2022/05/19 08:30:34;;;;;;;12.15;5.18;;;;;;;26.24;39.62;100630.19;5082453;28;20021;-75
2022/05/19 08:33:00;;;;;;;11.65;4.78;;;;;;;27.18;38.44;100622.59;5085123;28;20033;-75
2022/05/19 08:35:25;;;;;;;9.80;4.97;;;;;;;28.09;36.69;100624.56;5085743;28;20077;-75
2022/05/19 08:37:51;;;;;;;7.90;4.88;;;;;;;28.74;35.50;100629.16;5067865;28;20020;-75
2022/05/19 08:40:18;;;;;;;9.55;5.38;;;;;;;29.23;34.69;100626.09;5085541;28;20075;-75
2022/05/19 08:42:49;;;;;;;8.73;5.03;;;;;;;29.73;34.04;100637.09;5085802;28;20024;-76
2022/05/19 08:45:25;;;;;;;6.97;4.32;;;;;;;30.10;32.85;100633.84;5085479;28;20067;-76
2022/05/19 08:48:02;;;;;;;6.38;4.30;;;;;;;30.56;32.48;100641.47;5085570;28;20052;-75
2022/05/19 08:50:37;;;;;;;8.98;5.35;;;;;;;30.78;31.11;100652.91;5085513;28;20029;-75
2022/05/19 08:53:07;;;;;;;7.80;4.53;;;;;;;30.35;31.11;100654.97;5085925;28;20051;-75
2022/05/19 08:55:33;;;;;;;7.07;4.60;;;;;;;29.41;31.76;100639.69;5085421;28;20025;-75
2022/05/19 08:58:21;;;;;;;10.82;4.90;;;;;;;28.72;32.99;100649.84;5085688;28;20031;-75
2022/05/19 09:00:57;;;;;;;10.55;4.47;;;;;;;28.40;33.43;100651.50;5067272;28;20057;-75
2022/05/19 09:03:55;;;;;;;11.02;4.70;;;;;;;28.42;33.50;100660.22;5085598;28;20432;-76
2022/05/19 09:10:03;;;;;;;9.27;4.50;;;;;;;28.31;33.46;100658.41;5085648;28;20063;-74
2022/05/19 09:12:35;;;;;;;7.85;4.70;;;;;;;28.51;33.22;100660.44;5085201;28;20013;-75
2022/05/19 09:15:02;;;;;;;9.02;5.28;;;;;;;28.35;32.78;100653.69;5085429;28;20080;-74
2022/05/19 09:17:30;;;;;;;10.40;5.60;;;;;;;28.08;33.72;100658.38;5085455;28;20047;-75
2022/05/19 09:20:02;;;;;;;12.32;5.00;;;;;;;28.09;33.54;100649.44;5085043;28;20098;-75
2022/05/19 09:22:33;;;;;;;6.25;4.43;;;;;;;28.05;34.07;100647.13;5085087;28;20024;-75
2022/05/19 09:25:06;;;;;;;17.30;5.03;;;;;;;28.15;33.67;100669.44;5085006;28;20028;-74
2022/05/19 09:27:35;;;;;;;10.55;6.43;;;;;;;27.88;33.66;100672.44;5085126;28;20067;-75
2022/05/19 09:30:01;;;;;;;10.43;6.18;;;;;;;27.67;34.49;100675.84;5085130;28;20048;-76
2022/05/19 09:32:34;;;;;;;13.45;6.78;;;;;;;27.53;34.69;100684.84;5066519;28;20025;-74
2022/05/19 09:35:23;;;;;;;10.60;5.40;;;;;;;27.56;35.00;100673.94;5084154;28;20044;-74
2022/05/19 09:38:03;;;;;;;9.45;5.30;;;;;;;27.77;34.81;100681.28;5084338;28;20032;-74
2022/05/19 09:40:33;;;;;;;11.45;5.38;;;;;;;27.99;34.37;100671.63;5084046;28;20048;-74
2022/05/19 09:43:08;;;;;;;11.25;6.43;;;;;;;28.07;34.01;100674.50;5065457;28;20088;-74
2022/05/19 09:45:41;;;;;;;11.15;6.43;;;;;;;27.99;33.91;100669.78;5084274;28;20025;-75
2022/05/19 09:48:08;;;;;;;10.93;6.53;;;;;;;27.73;34.33;100674.50;5084495;28;20477;-76
2022/05/19 09:50:48;;;;;;;12.55;5.75;;;;;;;27.55;35.00;100659.78;5084271;28;20033;-76
2022/05/19 09:53:21;;;;;;;11.60;6.72;;;;;;;27.92;34.53;100648.09;5066182;28;20016;-76
2022/05/19 09:55:55;;;;;;;10.77;5.72;;;;;;;27.94;34.51;100635.47;5065963;28;20016;-75
2022/05/19 09:58:21;;;;;;;11.18;7.05;;;;;;;28.28;34.44;100621.25;5084458;28;20080;-75
2022/05/19 10:00:46;;;;;;;13.13;6.20;;;;;;;28.79;33.67;100631.47;5084245;28;20035;-75
2022/05/19 10:03:36;;;;;;;12.48;6.82;;;;;;;29.10;33.41;100636.97;5084048;28;20489;-76
2022/05/19 10:06:16;;;;;;;16.45;7.20;;;;;;;29.43;33.00;100627.06;5083918;28;20025;-75
2022/05/19 10:08:44;;;;;;;18.05;7.50;;;;;;;29.94;32.11;100629.88;5083904;28;20074;-75
2022/05/19 10:11:12;;;;;;;10.68;8.05;;;;;;;30.25;31.38;100637.03;5083493;28;20138;-75
2022/05/19 10:13:47;;;;;;;10.82;6.40;;;;;;;30.33;31.09;100644.38;5083699;28;20020;-74
2022/05/19 10:16:37;;;;;;;12.10;6.97;;;;;;;30.41;30.83;100657.94;5083792;28;20055;-75
2022/05/19 10:19:21;;;;;;;9.80;6.80;;;;;;;30.51;31.06;100660.63;5083533;28;20027;-75
2022/05/19 10:22:09;;;;;;;13.02;7.45;;;;;;;30.68;30.88;100659.13;5083612;28;20032;-75
2022/05/19 10:25:04;;;;;;;12.52;7.43;;;;;;;30.91;30.07;100653.50;5083521;28;20036;-75
2022/05/19 10:33:57;;;;;;;10.77;7.32;;;;;;;29.09;32.99;100664.66;5083618;28;20040;-74
2022/05/19 10:36:36;;;;;;;17.88;8.30;;;;;;;29.09;33.01;100653.97;5083323;28;20048;-75
2022/05/19 10:39:19;;;;;;;10.60;6.28;;;;;;;29.31;33.15;100654.84;5065026;28;20500;-75
2022/05/19 10:41:50;;;;;;;13.48;6.88;;;;;;;29.25;33.09;100666.06;5083589;28;20385;-75
2022/05/19 10:44:34;;;;;;;8.73;5.75;;;;;;;28.96;33.28;100662.19;5083314;28;20025;-75
2022/05/19 10:47:05;;;;;;;10.02;7.00;;;;;;;28.80;33.27;100665.22;5065193;28;20388;-74
2022/05/19 10:50:08;;;;;;;11.57;6.50;;;;;;;28.54;33.90;100669.06;5083024;28;20028;-74
2022/05/19 10:52:53;;;;;;;10.73;6.55;;;;;;;28.01;34.55;100667.00;5083148;28;20013;-74
2022/05/19 10:55:46;;;;;;;14.60;8.23;;;;;;;27.59;35.25;100674.56;5064953;28;20025;-74
2022/05/19 10:58:42;;;;;;;13.88;8.95;;;;;;;26.90;35.71;100669.94;5081984;28;20098;-75
2022/05/19 11:01:57;;;;;;;13.15;8.90;;;;;;;26.27;36.80;100678.81;5083089;28;20112;-75
2022/05/19 11:05:06;;;;;;;14.13;10.18;;;;;;;25.99;37.33;100689.59;5020206;28;20033;-74
2022/05/19 11:07:49;;;;;;;15.35;9.30;;;;;;;25.25;37.94;100697.13;5020410;28;20045;-75
2022/05/19 11:10:38;;;;;;;19.63;8.98;;;;;;;24.66;39.80;100700.88;5003989;28;20060;-74
2022/05/19 11:13:05;;;;;;;15.63;8.57;;;;;;;24.42;40.76;100698.84;5020477;28;20068;-77
2022/05/19 11:15:46;;;;;;;10.13;7.75;;;;;;;24.29;41.15;100703.19;5020472;28;20030;-76
2022/05/19 11:18:21;;;;;;;12.80;7.72;;;;;;;24.11;41.63;100708.66;5020358;28;20041;-76
2022/05/19 11:20:55;;;;;;;13.40;7.90;;;;;;;23.93;42.24;100703.50;5020249;28;20091;-76
2022/05/19 11:23:47;;;;;;;10.75;7.15;;;;;;;23.57;42.81;100702.97;5020371;28;20064;-75
2022/05/19 11:26:28;;;;;;;;;;;;;;;23.28;43.20;100700.19;4995018;28;20462;-75
2022/05/19 11:29:05;;;;;;;13.35;9.10;;;;;;;22.95;44.01;100694.09;5020393;28;19968;-75
2022/05/19 11:31:39;;;;;;;18.50;8.27;;;;;;;22.65;44.67;100698.34;5003809;28;20034;-75
2022/05/19 11:34:18;;;;;;;11.70;7.45;;;;;;;22.57;45.17;100697.06;5020342;28;20057;-75
2022/05/19 11:36:51;;;;;;;13.40;10.38;;;;;;;22.54;44.71;100696.28;5020180;28;20033;-75
2022/05/19 11:39:37;;;;;;;12.23;9.73;;;;;;;22.42;45.09;100710.16;5055935;28;20088;-76
2022/05/19 11:42:21;;;;;;;16.90;9.95;;;;;;;22.24;45.69;100702.28;5083199;28;20029;-76
2022/05/19 11:44:46;;;;;;;18.35;10.95;;;;;;;22.08;45.83;100699.59;5082916;28;20020;-75
2022/05/19 11:56:11;;;;;;;16.40;11.68;;;;;;;21.91;46.30;100732.19;5082448;28;20026;-76
2022/05/19 11:58:38;;;;;;;18.52;12.68;;;;;;;21.90;46.36;100741.06;5082532;28;20116;-75
2022/05/19 12:01:13;;;;;;;18.65;12.95;;;;;;;21.65;46.78;100737.84;5082259;28;20040;-75
2022/05/19 12:03:57;;;;;;;21.52;13.30;;;;;;;21.53;47.46;100734.00;5082369;28;20282;-75